createdAt,value
2022-10-23T00:02:40.282Z,100734.63
2022-10-23T00:05:43.726Z,100732.47
2022-10-23T00:08:48.046Z,100738.03
2022-10-23T00:11:51.859Z,100738.56
2022-10-23T00:14:56.195Z,100735.34
2022-10-23T00:17:59.087Z,100736.38
2022-10-23T00:21:02.448Z,100736.62
2022-10-23T00:24:06.813Z,100736.06
2022-10-23T00:27:09.529Z,100740.28
2022-10-23T00:30:14.046Z,100746.44
2022-10-23T00:33:16.670Z,100750.69
2022-10-23T00:36:21.607Z,100747.28
2022-10-23T00:39:24.316Z,100743.88
2022-10-23T00:42:28.348Z,100762.28
2022-10-23T00:45:33.547Z,100761.22
2022-10-23T00:48:36.589Z,100767.41
2022-10-23T00:51:46.587Z,100773.50
2022-10-23T00:54:49.466Z,100772.44
2022-10-23T00:57:52.691Z,100763.44
2022-10-23T01:00:57.022Z,100768.78
2022-10-23T01:04:01.415Z,100746.13
2022-10-23T01:07:15.452Z,100750.41
2022-10-23T01:10:27.109Z,100750.16
2022-10-23T01:13:51.073Z,100751.25
2022-10-23T01:17:02.812Z,100751.00
2022-10-23T01:20:25.424Z,100742.47
2022-10-23T01:23:38.085Z,100743.25
2022-10-23T01:26:46.818Z,100737.94
2022-10-23T01:30:16.278Z,100741.13
2022-10-23T01:33:28.542Z,100742.19
2022-10-23T01:36:34.283Z,100733.16
2022-10-23T01:39:41.383Z,100744.34
2022-10-23T01:42:49.849Z,100736.09
2022-10-23T01:45:58.392Z,100732.88
2022-10-23T01:49:03.746Z,100740.09
2022-10-23T01:52:11.725Z,100745.41
2022-10-23T01:55:15.742Z,100750.19
2022-10-23T01:58:21.225Z,100746.19
2022-10-23T02:01:27.768Z,100753.94
2022-10-23T02:04:36.774Z,100752.34
2022-10-23T02:07:40.074Z,100753.91
2022-10-23T02:11:04.936Z,100764.59
2022-10-23T02:14:23.646Z,100762.19
2022-10-23T02:17:36.125Z,100767.78
2022-10-23T02:24:12.263Z,100765.87
2022-10-23T02:27:28.904Z,100771.47
2022-10-23T02:30:35.793Z,100779.19
2022-10-23T02:33:41.330Z,100785.84
2022-10-23T02:36:44.306Z,100781.84
2022-10-23T02:39:49.235Z,100787.97
2022-10-23T02:43:01.676Z,100793.00
2022-10-23T02:46:26.612Z,100791.12
2022-10-23T02:49:51.202Z,100790.81
2022-10-23T02:53:06.389Z,100786.00
2022-10-23T02:56:25.690Z,100791.56
2022-10-23T02:59:51.168Z,100787.53
2022-10-23T03:02:59.355Z,100793.91
2022-10-23T03:06:03.146Z,100792.25
2022-10-23T03:09:09.032Z,100790.38
2022-10-23T03:12:11.717Z,100789.78
2022-10-23T03:15:16.513Z,100787.66
2022-10-23T03:18:19.150Z,100792.66
2022-10-23T03:21:22.784Z,100797.69
2022-10-23T03:24:29.413Z,100803.50
2022-10-23T03:27:32.617Z,100800.25
2022-10-23T03:30:36.068Z,100803.91
2022-10-23T03:33:39.094Z,100798.06
2022-10-23T03:36:41.978Z,100810.16
2022-10-23T03:39:45.152Z,100814.81
2022-10-23T03:42:47.837Z,100826.53
2022-10-23T03:45:52.204Z,100819.59
2022-10-23T03:48:58.189Z,100817.50
2022-10-23T03:52:01.174Z,100812.97
2022-10-23T03:55:04.685Z,100820.47
2022-10-23T03:58:07.687Z,100817.06
2022-10-23T04:01:10.558Z,100820.50
2022-10-23T04:04:14.448Z,100818.38
2022-10-23T04:07:17.259Z,100822.09
2022-10-23T04:10:20.405Z,100817.50
2022-10-23T04:13:23.044Z,100808.38
2022-10-23T04:16:27.075Z,100809.50
2022-10-23T04:19:29.730Z,100815.91
2022-10-23T04:22:32.681Z,100819.91
2022-10-23T04:25:36.161Z,100828.12
2022-10-23T04:28:40.048Z,100834.75
2022-10-23T04:31:42.777Z,100826.03
2022-10-23T04:34:45.723Z,100830.03
2022-10-23T04:37:48.549Z,100833.91
2022-10-23T04:40:51.582Z,100830.50
2022-10-23T04:43:55.397Z,100827.84
2022-10-23T04:46:58.453Z,100817.78
2022-10-23T04:50:01.591Z,100825.50
2022-10-23T04:53:10.811Z,100829.00
2022-10-23T04:56:15.648Z,100827.44
2022-10-23T04:59:20.856Z,100830.66
2022-10-23T05:02:24.468Z,100824.88
2022-10-23T05:05:27.627Z,100837.09
2022-10-23T05:08:30.965Z,100843.25
2022-10-23T05:11:34.159Z,100840.34
2022-10-23T05:14:39.721Z,100844.53
2022-10-23T05:17:46.330Z,100845.03
2022-10-23T05:20:54.376Z,100843.78
2022-10-23T05:23:57.848Z,100843.78
2022-10-23T05:27:00.513Z,100836.03
2022-10-23T05:30:06.247Z,100847.00
2022-10-23T05:33:11.251Z,100844.69
2022-10-23T05:36:15.695Z,100855.06
2022-10-23T05:39:20.117Z,100861.75
2022-10-23T05:42:23.697Z,100857.50
2022-10-23T05:45:27.373Z,100867.66
2022-10-23T05:48:37.687Z,100867.13
2022-10-23T05:51:42.026Z,100873.56
2022-10-23T05:54:45.121Z,100870.66
2022-10-23T05:57:48.813Z,100872.03
2022-10-23T06:00:52.003Z,100865.13
2022-10-23T06:03:59.676Z,100847.84
2022-10-23T06:07:04.825Z,100863.59
2022-10-23T06:10:08.300Z,100862.81
2022-10-23T06:13:11.330Z,100869.34
2022-10-23T06:16:15.943Z,100879.00
2022-10-23T06:19:18.837Z,100876.91
2022-10-23T06:22:23.042Z,100892.41
2022-10-23T06:25:26.081Z,100889.22
2022-10-23T06:28:29.560Z,100890.59
2022-10-23T06:31:32.286Z,100893.53
2022-10-23T06:34:35.210Z,100899.44
2022-10-23T06:37:38.467Z,100908.53
2022-10-23T06:40:42.223Z,100909.06
2022-10-23T06:43:48.133Z,100904.38
2022-10-23T06:46:51.721Z,100903.06
2022-10-23T06:49:56.744Z,100902.28
2022-10-23T06:52:59.780Z,100905.50
2022-10-23T06:56:05.312Z,100902.56
2022-10-23T06:59:09.859Z,100913.50
2022-10-23T07:02:13.025Z,100907.63
2022-10-23T07:05:16.110Z,100908.44
2022-10-23T07:08:19.014Z,100895.34
2022-10-23T07:11:22.368Z,100891.09
2022-10-23T07:14:25.173Z,100894.81
2022-10-23T07:17:31.062Z,100899.06
2022-10-23T07:20:34.397Z,100898.00
2022-10-23T07:23:37.621Z,100903.62
2022-10-23T07:26:41.554Z,100901.50
2022-10-23T07:29:44.535Z,100898.53
2022-10-23T07:32:47.240Z,100917.22
2022-10-23T07:35:53.244Z,100922.03
2022-10-23T07:38:57.623Z,100921.75
2022-10-23T07:42:03.818Z,100917.44
2022-10-23T07:45:08.703Z,100918.78
2022-10-23T07:48:12.421Z,100919.81
2022-10-23T07:51:16.551Z,100912.84
2022-10-23T07:54:20.014Z,100910.69
2022-10-23T07:57:24.205Z,100910.09
2022-10-23T08:00:29.361Z,100904.38
2022-10-23T08:03:33.803Z,100901.56
2022-10-23T08:06:36.866Z,100892.34
2022-10-23T08:09:40.186Z,100895.59
2022-10-23T08:12:43.914Z,100901.00
2022-10-23T08:15:48.907Z,100902.50
2022-10-23T08:18:53.304Z,100914.03
2022-10-23T08:21:57.333Z,100907.28
2022-10-23T08:25:00.119Z,100908.75
2022-10-23T08:28:05.558Z,100908.88
2022-10-23T08:31:16.034Z,100903.22
2022-10-23T08:34:20.941Z,100894.84
2022-10-23T08:37:24.096Z,100899.28
2022-10-23T08:40:27.947Z,100897.31
2022-10-23T08:43:47.025Z,100904.69
2022-10-23T08:47:12.113Z,100901.97
2022-10-23T08:50:24.258Z,100897.97
2022-10-23T08:53:32.950Z,100903.53
2022-10-23T08:56:39.437Z,100903.53
2022-10-23T08:59:56.382Z,100897.47
2022-10-23T09:03:02.902Z,100911.44
2022-10-23T09:06:35.535Z,100901.50
2022-10-23T09:09:52.497Z,100904.59
2022-10-23T09:13:11.793Z,100917.41
2022-10-23T09:16:39.409Z,100910.47
2022-10-23T09:19:45.187Z,100912.19
2022-10-23T09:22:59.010Z,100909.47
2022-10-23T09:26:05.266Z,100904.97
2022-10-23T09:29:28.873Z,100908.59
2022-10-23T09:32:37.865Z,100909.62
2022-10-23T09:36:02.331Z,100918.31
2022-10-23T09:39:05.327Z,100927.81
2022-10-23T09:42:37.529Z,100925.44
2022-10-23T09:45:42.563Z,100931.03
2022-10-23T09:48:45.694Z,100919.81
2022-10-23T09:51:54.106Z,100918.69
2022-10-23T09:55:00.344Z,100926.34
2022-10-23T09:58:03.401Z,100917.00
2022-10-23T10:01:07.855Z,100922.75
2022-10-23T10:04:16.127Z,100913.84
2022-10-23T10:07:25.299Z,100917.06
2022-10-23T10:10:36.117Z,100905.63
2022-10-23T10:14:25.021Z,100901.69
2022-10-23T10:17:51.283Z,100895.66
2022-10-23T10:21:21.242Z,100888.97
2022-10-23T10:24:47.153Z,100873.78
2022-10-23T10:28:24.996Z,100870.72
2022-10-23T10:31:53.078Z,100867.69
2022-10-23T10:35:19.341Z,100868.00
2022-10-23T10:38:50.810Z,100857.91
2022-10-23T10:42:46.767Z,100854.22
2022-10-23T11:02:14.543Z,100849.00
2022-10-23T11:05:39.043Z,100845.41
2022-10-23T11:09:29.184Z,100839.28
2022-10-23T11:12:53.783Z,100842.81
2022-10-23T11:16:09.781Z,100842.06
2022-10-23T11:19:30.351Z,100835.09
2022-10-23T11:22:47.988Z,100829.31
2022-10-23T11:26:13.349Z,100823.66
2022-10-23T11:29:52.394Z,100816.34
2022-10-23T11:33:28.659Z,100809.31
2022-10-23T11:36:52.932Z,100807.84
2022-10-23T11:40:08.052Z,100812.87
2022-10-23T11:43:10.870Z,100810.75
2022-10-23T11:46:29.727Z,100804.06
2022-10-23T11:49:32.475Z,100802.41
2022-10-23T11:52:45.572Z,100786.63
2022-10-23T11:56:05.281Z,100795.03
2022-10-23T11:59:29.249Z,100786.66
2022-10-23T12:02:42.084Z,100792.56
2022-10-23T12:05:46.059Z,100785.44
2022-10-23T12:08:53.428Z,100785.13
2022-10-23T12:12:16.000Z,100767.12
2022-10-23T12:15:22.832Z,100765.87
2022-10-23T12:18:27.535Z,100762.34
2022-10-23T12:21:35.253Z,100758.38
2022-10-23T12:24:53.585Z,100749.25
2022-10-23T12:28:19.620Z,100749.37
2022-10-23T12:31:48.322Z,100738.53
2022-10-23T12:35:43.218Z,100733.62
2022-10-23T12:38:47.410Z,100718.75
2022-10-23T12:41:50.188Z,100713.59
2022-10-23T12:44:59.224Z,100715.72
2022-10-23T12:48:02.193Z,100719.22
2022-10-23T12:51:05.492Z,100711.22
2022-10-23T12:54:20.027Z,100716.28
2022-10-23T12:57:25.617Z,100714.94
2022-10-23T13:00:28.553Z,100718.72
2022-10-23T13:03:34.294Z,100710.50
2022-10-23T13:06:39.421Z,100706.00
2022-10-23T13:09:45.498Z,100695.72
2022-10-23T13:13:18.368Z,100691.88
2022-10-23T13:16:24.368Z,100691.81
2022-10-23T13:19:27.743Z,100674.75
2022-10-23T13:22:31.338Z,100676.00
2022-10-23T13:25:35.662Z,100667.63
2022-10-23T13:28:44.384Z,100667.94
2022-10-23T13:31:47.531Z,100665.13
2022-10-23T13:35:03.649Z,100662.41
2022-10-23T13:38:13.590Z,100659.75
2022-10-23T13:41:28.877Z,100663.34
2022-10-23T14:15:20.666Z,100640.87
2022-10-23T14:18:24.459Z,100641.38
2022-10-23T14:21:28.302Z,100635.34
2022-10-23T14:24:31.458Z,100631.03
2022-10-23T14:27:34.676Z,100631.97
2022-10-23T14:30:38.019Z,100630.22
2022-10-23T14:33:41.587Z,100618.19
2022-10-23T14:36:50.954Z,100607.84
2022-10-23T14:40:00.864Z,100607.34
2022-10-23T14:43:05.621Z,100595.03
2022-10-23T14:46:14.947Z,100593.63
2022-10-23T14:49:18.465Z,100593.44
2022-10-23T14:52:22.102Z,100600.53
2022-10-23T14:55:26.587Z,100589.75
2022-10-23T14:58:30.480Z,100577.56
2022-10-23T15:01:37.778Z,100573.59
2022-10-23T15:04:40.910Z,100576.78
2022-10-23T15:07:44.814Z,100568.66
2022-10-23T15:10:47.958Z,100576.50
2022-10-23T15:13:51.664Z,100578.69
2022-10-23T15:16:57.170Z,100579.41
2022-10-23T15:20:01.227Z,100580.53
2022-10-23T15:23:04.614Z,100579.69
2022-10-23T15:26:11.842Z,100581.09
2022-10-23T15:29:15.627Z,100585.78
2022-10-23T15:32:25.188Z,100575.16
2022-10-23T15:38:33.255Z,100583.69
2022-10-23T15:42:03.880Z,100585.69
2022-10-23T15:49:52.033Z,100586.25
2022-10-23T15:52:57.158Z,100574.50
2022-10-23T15:56:01.302Z,100588.56
2022-10-23T15:59:05.074Z,100589.25
2022-10-23T16:02:12.880Z,100587.00
2022-10-23T16:05:17.585Z,100581.44
2022-10-23T16:08:22.724Z,100594.19
2022-10-23T16:11:29.066Z,100587.09
2022-10-23T16:14:32.714Z,100592.91
2022-10-23T16:17:38.350Z,100597.19
2022-10-23T16:20:41.713Z,100595.00
2022-10-23T16:23:46.833Z,100590.81
2022-10-23T16:26:53.239Z,100584.06
2022-10-23T16:29:56.703Z,100591.84
2022-10-23T16:32:59.727Z,100595.63
2022-10-23T16:36:39.217Z,100595.41
2022-10-23T16:39:46.337Z,100600.47
2022-10-23T16:42:52.280Z,100606.31
2022-10-23T16:46:01.570Z,100620.84
2022-10-23T16:49:08.138Z,100614.00
2022-10-23T16:52:11.736Z,100622.66
2022-10-23T16:55:33.407Z,100622.12
2022-10-23T16:58:45.599Z,100617.78
2022-10-23T17:01:48.964Z,100627.03
2022-10-23T17:04:54.808Z,100630.41
2022-10-23T17:08:07.114Z,100629.91
2022-10-23T17:11:25.832Z,100639.91
2022-10-23T17:14:29.453Z,100636.66
2022-10-23T17:17:36.751Z,100630.31
2022-10-23T17:20:41.569Z,100643.03
2022-10-23T17:23:45.312Z,100645.81
2022-10-23T17:26:48.620Z,100635.69
2022-10-23T17:29:52.094Z,100633.78
2022-10-23T17:32:58.240Z,100623.87
2022-10-23T17:36:05.904Z,100624.44
2022-10-23T17:39:25.260Z,100621.94
2022-10-23T17:42:29.636Z,100623.25
2022-10-23T17:45:35.744Z,100609.50
2022-10-23T17:48:56.999Z,100604.13
2022-10-23T17:52:00.062Z,100608.16
2022-10-23T17:55:03.671Z,100610.13
2022-10-23T17:58:08.068Z,100609.13
2022-10-23T18:01:27.600Z,100609.00
2022-10-23T18:04:34.750Z,100609.41
2022-10-23T18:10:49.019Z,100607.47
2022-10-23T18:13:56.689Z,100600.66
2022-10-23T18:17:01.032Z,100605.19
2022-10-23T18:20:04.741Z,100594.16
2022-10-23T18:23:25.570Z,100595.94
2022-10-23T18:26:31.283Z,100602.72
2022-10-23T18:29:34.782Z,100603.56
2022-10-23T18:32:48.617Z,100605.88
2022-10-23T18:35:52.799Z,100602.25
2022-10-23T18:42:23.467Z,100598.56
2022-10-23T18:45:27.014Z,100599.22
2022-10-23T18:48:34.369Z,100602.41
2022-10-23T18:51:46.431Z,100596.97
2022-10-23T18:54:49.690Z,100597.31
2022-10-23T19:01:10.899Z,100588.47
2022-10-23T19:07:36.160Z,100587.13
2022-10-23T19:10:43.529Z,100578.88
2022-10-23T19:13:47.012Z,100581.09
2022-10-23T19:17:13.697Z,100582.66
2022-10-23T19:20:19.970Z,100590.47
2022-10-23T19:23:23.056Z,100583.34
2022-10-23T19:26:27.250Z,100587.41
2022-10-23T19:29:31.729Z,100589.53
2022-10-23T19:32:35.120Z,100595.50
2022-10-23T19:35:37.970Z,100604.13
2022-10-23T19:38:42.442Z,100609.78
2022-10-23T19:41:46.160Z,100614.56
2022-10-23T19:44:49.452Z,100610.22
2022-10-23T19:47:52.367Z,100598.50
2022-10-23T19:50:55.668Z,100602.19
2022-10-23T19:53:59.000Z,100588.50
2022-10-23T19:57:02.557Z,100591.16
2022-10-23T20:00:07.442Z,100580.66
2022-10-23T20:03:12.842Z,100581.62
2022-10-23T20:06:26.478Z,100584.97
2022-10-23T20:09:30.642Z,100577.88
2022-10-23T20:12:33.832Z,100576.09
2022-10-23T20:15:38.005Z,100583.78
2022-10-23T20:18:41.110Z,100579.50
2022-10-23T20:21:47.041Z,100574.84
2022-10-23T20:24:50.667Z,100572.16
2022-10-23T20:27:53.489Z,100573.44
2022-10-23T20:30:56.845Z,100567.47
2022-10-23T20:33:59.868Z,100565.97
2022-10-23T20:37:03.584Z,100558.75
2022-10-23T20:40:07.046Z,100556.75
2022-10-23T20:43:10.452Z,100564.59
2022-10-23T20:46:13.589Z,100558.16
2022-10-23T20:49:17.633Z,100569.06
2022-10-23T20:52:22.079Z,100564.31
2022-10-23T20:55:27.687Z,100569.94
2022-10-23T20:58:30.385Z,100569.94
2022-10-23T21:01:34.869Z,100554.63
2022-10-23T21:04:37.508Z,100558.13
2022-10-23T21:07:40.409Z,100557.94
2022-10-23T21:10:47.235Z,100559.63
2022-10-23T21:13:50.130Z,100567.47
2022-10-23T21:16:52.804Z,100557.94
2022-10-23T21:19:56.320Z,100551.47
2022-10-23T21:22:58.906Z,100551.31
2022-10-23T21:26:06.337Z,100557.25
2022-10-23T21:29:18.489Z,100550.88
2022-10-23T21:32:22.529Z,100555.34
2022-10-23T21:35:30.009Z,100555.94
2022-10-23T21:38:33.486Z,100561.03
2022-10-23T21:41:36.064Z,100556.28
2022-10-23T21:44:42.165Z,100563.59
2022-10-23T21:47:45.166Z,100556.66
2022-10-23T21:53:57.059Z,100549.72
2022-10-23T21:57:00.048Z,100556.66
2022-10-23T22:00:02.741Z,100557.06
2022-10-23T22:03:15.017Z,100556.84
2022-10-23T22:06:24.838Z,100541.03
2022-10-23T22:09:27.526Z,100547.66
2022-10-23T22:12:30.403Z,100547.28
2022-10-23T22:15:32.902Z,100550.66
2022-10-23T22:18:36.746Z,100545.09
2022-10-23T22:21:39.317Z,100536.88
2022-10-23T22:24:42.118Z,100543.44
2022-10-23T22:27:44.822Z,100531.53
2022-10-23T22:30:47.883Z,100534.31
2022-10-23T22:33:51.173Z,100536.59
2022-10-23T22:36:54.694Z,100531.87
2022-10-23T22:39:57.353Z,100539.09
2022-10-23T22:43:00.178Z,100532.41
2022-10-23T22:46:14.310Z,100540.78
2022-10-23T22:49:17.137Z,100540.31
2022-10-23T22:52:19.698Z,100537.97
2022-10-23T22:55:22.538Z,100524.56
2022-10-23T22:58:26.108Z,100527.59
2022-10-23T23:01:36.883Z,100522.69
2022-10-23T23:04:39.683Z,100513.50
2022-10-23T23:07:45.757Z,100516.75
2022-10-23T23:10:58.117Z,100522.97
2022-10-23T23:14:01.735Z,100519.50
2022-10-23T23:17:05.254Z,100511.87
2022-10-23T23:20:08.780Z,100511.81
2022-10-23T23:23:12.510Z,100515.44
2022-10-23T23:26:16.318Z,100510.44
2022-10-23T23:29:19.596Z,100515.41
